Time;durP1;ratioP1;P1;durP2;ratioP2;P2;SDS_P1;SDS_P2;PMS_P1;PMS_P2;Temp;Humidity;BMP_temperature;BMP_pressure;BME280_temperature;BME280_humidity;BME280_pressure;Samples;Min_cycle;Max_cycle;Signal;HPM_P1;HPM_P2
2023/10/05 00:00:39;;;;;;;6.03;3.70;;;;;;;11.08;91.55;99118.09;4122052;28;20686;-85
2023/10/05 00:03:05;;;;;;;3.70;3.20;;;;;;;11.02;92.44;99115.81;4121335;28;20624;-85
2023/10/05 00:05:28;;;;;;;4.07;3.20;;;;;;;11.00;91.49;99119.41;4118432;28;20628;-85
2023/10/05 00:07:36;;;;;;;3.50;3.10;;;;;;;11.02;91.44;99121.03;4109610;28;20627;-85
2023/10/05 00:10:00;;;;;;;4.90;3.47;;;;;;;11.01;91.73;99116.72;4127205;28;20621;-85
2023/10/05 00:12:20;;;;;;;4.27;3.47;;;;;;;10.98;92.35;99118.66;4126242;28;20729;-85
2023/10/05 00:14:47;;;;;;;3.97;3.43;;;;;;;10.93;91.18;99116.31;4134083;28;20614;-85
2023/10/05 00:17:11;;;;;;;3.97;3.30;;;;;;;10.89;92.45;99119.97;4127467;28;20689;-85
2023/10/05 00:19:21;;;;;;;4.50;3.53;;;;;;;10.85;92.04;99117.63;4125916;28;20639;-85
2023/10/05 00:21:35;;;;;;;7.90;4.10;;;;;;;10.86;91.77;99119.31;4131889;28;20643;-85
2023/10/05 00:24:00;;;;;;;5.10;3.20;;;;;;;10.89;92.90;99121.75;4120135;28;20611;-85
2023/10/05 00:26:07;;;;;;;4.70;3.20;;;;;;;10.92;91.35;99117.22;4125740;28;20659;-85
2023/10/05 00:28:31;;;;;;;5.20;3.47;;;;;;;10.89;92.54;99109.53;4123645;28;20667;-85
2023/10/05 00:30:54;;;;;;;6.60;3.70;;;;;;;10.85;91.56;99118.47;4112502;28;20682;-85
2023/10/05 00:33:20;;;;;;;4.20;2.97;;;;;;;10.80;92.32;99109.19;4110606;28;21035;-85
2023/10/05 00:35:43;;;;;;;5.00;3.40;;;;;;;10.78;92.71;99110.19;4124428;28;20615;-85
2023/10/05 00:38:12;;;;;;;4.40;3.10;;;;;;;10.74;91.70;99106.09;4137708;28;20611;-85
2023/10/05 00:40:37;;;;;;;5.17;3.47;;;;;;;10.74;92.21;99104.31;4126831;28;21507;-85
2023/10/05 00:43:04;;;;;;;5.60;3.33;;;;;;;10.72;92.26;99100.06;4140503;28;20622;-85
2023/10/05 00:45:31;;;;;;;7.03;3.20;;;;;;;10.68;91.76;99096.81;4124988;28;20707;-85
2023/10/05 00:48:02;;;;;;;3.83;2.90;;;;;;;10.65;91.57;99096.97;4112248;28;20613;-85
2023/10/05 00:50:27;;;;;;;6.13;3.27;;;;;;;10.64;91.51;99102.25;4125464;28;20639;-85
2023/10/05 00:52:52;;;;;;;5.40;3.63;;;;;;;10.56;92.48;99099.22;4128025;28;20683;-85
2023/10/05 00:55:16;;;;;;;5.27;3.13;;;;;;;10.52;92.16;99095.91;4125896;28;20669;-85
2023/10/05 00:57:40;;;;;;;5.40;3.70;;;;;;;10.55;92.95;99097.50;4134013;28;21292;-85
2023/10/05 01:00:26;;;;;;;5.40;3.70;;;;;;;10.60;92.64;99101.59;4128208;28;20709;-85
2023/10/05 01:03:10;;;;;;;5.67;3.20;;;;;;;10.64;92.64;99099.66;4123928;28;20723;-85
2023/10/05 01:05:25;;;;;;;5.47;3.40;;;;;;;10.64;93.37;99097.88;4123185;28;20631;-85
2023/10/05 01:07:56;;;;;;;3.73;3.20;;;;;;;10.65;93.53;99090.91;4122339;28;20639;-85
2023/10/05 01:10:29;;;;;;;4.80;3.10;;;;;;;10.62;92.74;99083.25;4113051;28;20674;-85
2023/10/05 01:12:54;;;;;;;5.37;3.20;;;;;;;10.59;92.88;99080.78;4127277;28;21043;-85
2023/10/05 01:15:19;;;;;;;4.40;3.20;;;;;;;10.58;92.89;99079.09;4122927;28;20625;-85
2023/10/05 01:17:43;;;;;;;3.90;2.97;;;;;;;10.55;93.87;99076.66;4123294;28;20715;-85
2023/10/05 01:20:13;;;;;;;4.83;3.23;;;;;;;10.55;93.29;99071.44;4125735;28;21122;-85
2023/10/05 01:22:32;;;;;;;4.60;3.40;;;;;;;10.55;93.52;99087.09;4119580;28;20726;-85
2023/10/05 01:24:59;;;;;;;6.53;3.30;;;;;;;10.54;93.19;99077.56;4124686;28;20655;-85
2023/10/05 01:27:22;;;;;;;5.40;3.50;;;;;;;10.56;93.52;99073.13;4124795;28;21272;-85
2023/10/05 01:29:45;;;;;;;4.40;2.90;;;;;;;10.54;94.27;99077.56;4110037;28;20645;-85
2023/10/05 01:32:10;;;;;;;5.07;3.20;;;;;;;10.56;94.08;99073.13;4122179;28;20655;-85
2023/10/05 01:34:34;;;;;;;7.27;3.57;;;;;;;10.52;94.05;99074.22;4110174;28;20616;-85
2023/10/05 01:36:58;;;;;;;7.50;3.90;;;;;;;10.50;92.84;99063.03;4125251;28;21245;-85
2023/10/05 01:39:22;;;;;;;4.20;2.73;;;;;;;10.46;93.14;99069.31;4109126;28;20663;-85
2023/10/05 01:41:48;;;;;;;3.40;2.80;;;;;;;10.47;93.71;99068.41;4113737;28;20739;-84
2023/10/05 01:44:13;;;;;;;4.10;3.07;;;;;;;10.51;93.73;99078.59;4122643;28;20626;-85
2023/10/05 01:46:37;;;;;;;3.87;3.10;;;;;;;10.53;93.32;99073.28;4126219;28;21046;-85
2023/10/05 01:49:01;;;;;;;4.70;3.03;;;;;;;10.52;92.91;99056.78;4124709;28;20627;-85
2023/10/05 01:51:10;;;;;;;4.03;3.10;;;;;;;10.47;92.89;99068.41;4123481;28;20681;-85
2023/10/05 01:53:34;;;;;;;4.00;2.83;;;;;;;10.45;92.62;99054.59;4124801;28;20658;-85
2023/10/05 01:55:59;;;;;;;6.33;3.60;;;;;;;10.40;93.18;99057.44;4119868;28;20658;-85
2023/10/05 01:58:24;;;;;;;4.30;3.27;;;;;;;10.39;94.03;99049.72;4111429;28;20636;-85
2023/10/05 02:00:48;;;;;;;6.83;2.60;;;;;;;10.41;93.51;99064.34;4107321;28;20691;-85
2023/10/05 02:03:11;;;;;;;4.63;3.27;;;;;;;10.39;93.37;99060.97;4122613;28;20643;-85
2023/10/05 02:05:36;;;;;;;4.60;3.00;;;;;;;10.41;93.79;99053.06;4124809;28;20628;-85
2023/10/05 02:08:00;;;;;;;3.80;3.30;;;;;;;10.40;93.47;99044.41;4121824;28;21083;-85
2023/10/05 02:10:24;;;;;;;3.33;2.80;;;;;;;10.34;92.93;99036.03;4110199;28;20659;-85
2023/10/05 02:12:53;;;;;;;4.17;3.30;;;;;;;10.29;93.07;99050.25;4123502;28;21025;-85
2023/10/05 02:15:18;;;;;;;3.73;3.03;;;;;;;10.29;92.83;99043.28;4121338;28;20638;-85
2023/10/05 02:17:45;;;;;;;6.63;3.40;;;;;;;10.33;94.25;99055.25;4125022;28;21057;-85
2023/10/05 02:20:25;;;;;;;7.33;3.40;;;;;;;10.35;94.20;99053.38;4113359;28;20695;-85
2023/10/05 02:22:47;;;;;;;5.33;3.83;;;;;;;10.37;94.13;99054.13;4133108;28;20622;-85
2023/10/05 02:25:12;;;;;;;4.90;3.63;;;;;;;10.37;93.83;99055.00;4121526;28;20659;-85
2023/10/05 02:27:20;;;;;;;5.97;3.33;;;;;;;10.37;93.24;99056.75;4121687;28;20719;-84
2023/10/05 02:29:26;;;;;;;5.60;3.13;;;;;;;10.37;93.64;99054.13;4107181;28;20643;-85
2023/10/05 02:31:56;;;;;;;4.90;3.37;;;;;;;10.33;93.48;99055.25;4123105;28;20619;-85
2023/10/05 02:34:20;;;;;;;7.43;3.53;;;;;;;10.35;93.56;99058.59;4123929;28;21307;-85
2023/10/05 02:36:30;;;;;;;4.57;3.03;;;;;;;10.35;93.51;99059.44;4135206;28;20673;-85
2023/10/05 02:38:54;;;;;;;4.37;3.37;;;;;;;10.32;93.70;99050.94;4121387;28;20710;-85
2023/10/05 02:41:04;;;;;;;3.57;3.20;;;;;;;10.30;94.83;99052.78;4123727;28;20710;-84
2023/10/05 02:43:28;;;;;;;5.03;3.87;;;;;;;10.29;93.50;99047.66;4123899;28;20631;-85
2023/10/05 02:45:37;;;;;;;4.80;3.30;;;;;;;10.27;93.92;99057.31;4109261;28;21452;-85
2023/10/05 02:48:05;;;;;;;5.67;3.67;;;;;;;10.30;94.26;99059.75;4110937;28;20627;-85
2023/10/05 02:50:10;;;;;;;5.67;3.27;;;;;;;10.32;94.22;99053.53;4123252;28;20621;-85
2023/10/05 02:52:34;;;;;;;5.87;4.20;;;;;;;10.36;93.95;99049.88;4124825;28;20651;-85
2023/10/05 02:54:57;;;;;;;4.27;3.80;;;;;;;10.36;93.92;99042.88;4123520;28;20628;-85
2023/10/05 02:57:20;;;;;;;5.37;3.67;;;;;;;10.34;93.60;99036.03;4108220;28;20755;-85
2023/10/05 02:59:44;;;;;;;4.33;3.90;;;;;;;10.34;93.81;99046.47;4137281;28;20615;-85
2023/10/05 03:02:09;;;;;;;5.20;3.90;;;;;;;10.37;93.48;99039.34;4122368;28;20627;-85
2023/10/05 03:04:45;;;;;;;4.57;3.77;;;;;;;10.33;93.47;99037.00;4121475;28;20620;-85
2023/10/05 03:07:02;;;;;;;4.20;3.33;;;;;;;10.23;93.77;99040.16;4105455;28;21229;-85
2023/10/05 03:09:26;;;;;;;4.73;3.60;;;;;;;10.19;94.10;99036.84;4124373;28;20627;-85
2023/10/05 03:11:49;;;;;;;5.03;3.17;;;;;;;10.16;93.97;99028.34;4120561;28;20668;-85
2023/10/05 03:14:16;;;;;;;3.87;3.47;;;;;;;10.17;93.89;99028.25;4109894;28;20654;-85
2023/10/05 03:16:47;;;;;;;3.73;3.10;;;;;;;10.16;93.81;99021.34;4123201;28;21214;-85
2023/10/05 03:19:14;;;;;;;4.50;3.20;;;;;;;10.18;94.93;99024.75;4114372;28;20616;-85
2023/10/05 03:21:40;;;;;;;7.73;4.03;;;;;;;10.23;95.28;99033.16;4118589;28;20639;-85
2023/10/05 03:24:04;;;;;;;4.10;3.00;;;;;;;10.27;94.97;99042.53;4124245;28;20611;-85
2023/10/05 03:26:28;;;;;;;4.60;3.17;;;;;;;10.31;94.97;99051.00;4121526;28;20645;-85
2023/10/05 03:28:52;;;;;;;4.40;3.40;;;;;;;10.32;95.10;99044.91;4123808;28;20642;-85
2023/10/05 03:31:23;;;;;;;7.17;3.60;;;;;;;10.32;94.83;99044.91;4110643;28;20660;-85
2023/10/05 03:33:51;;;;;;;4.53;3.50;;;;;;;10.30;94.66;99049.31;4121809;28;20651;-85
2023/10/05 03:36:15;;;;;;;7.07;4.20;;;;;;;10.30;95.37;99052.78;4111191;28;20684;-85
2023/10/05 03:38:40;;;;;;;4.27;2.77;;;;;;;10.35;95.49;99061.22;4123125;28;20691;-85
2023/10/05 03:41:04;;;;;;;4.23;2.93;;;;;;;10.37;95.77;99061.97;4122455;28;20694;-85
2023/10/05 03:43:21;;;;;;;3.23;2.83;;;;;;;10.40;95.35;99067.03;4124032;28;20627;-85
2023/10/05 03:45:44;;;;;;;4.40;3.17;;;;;;;10.43;95.29;99069.47;4111042;28;20636;-85
2023/10/05 03:48:07;;;;;;;5.90;3.70;;;;;;;10.44;95.35;99061.56;4109962;28;21280;-85
2023/10/05 03:50:29;;;;;;;5.50;3.77;;;;;;;10.44;95.68;99056.34;4111019;28;20644;-85
2023/10/05 03:52:54;;;;;;;5.90;3.50;;;;;;;10.45;95.54;99062.44;4112124;28;20604;-85
2023/10/05 03:55:19;;;;;;;4.50;3.70;;;;;;;10.47;95.07;99063.19;4110499;28;20699;-86
2023/10/05 03:57:46;;;;;;;5.00;3.63;;;;;;;10.46;95.51;99064.97;4134280;28;21154;-85
2023/10/05 04:00:31;;;;;;;6.70;4.20;;;;;;;10.49;95.47;99072.63;4125705;28;20662;-85
2023/10/05 04:02:56;;;;;;;4.77;3.50;;;;;;;10.50;94.82;99069.06;4124191;28;21019;-85
2023/10/05 04:05:22;;;;;;;4.03;3.30;;;;;;;10.52;94.69;99076.81;4117197;28;20720;-85
2023/10/05 04:07:47;;;;;;;4.00;3.53;;;;;;;10.51;94.72;99075.97;4122794;28;20652;-85
2023/10/05 04:10:13;;;;;;;5.40;3.30;;;;;;;10.53;94.46;99075.91;4107074;28;21039;-85
2023/10/05 04:12:39;;;;;;;4.60;3.27;;;;;;;10.53;94.54;99071.50;4123588;28;20698;-85
2023/10/05 04:15:08;;;;;;;5.37;3.23;;;;;;;10.53;94.82;99078.50;4123719;28;20655;-85
2023/10/05 04:17:31;;;;;;;4.30;3.30;;;;;;;10.50;94.58;99069.06;4121972;28;20670;-85
2023/10/05 04:19:55;;;;;;;5.03;3.00;;;;;;;10.47;94.47;99071.84;4122500;28;20693;-84
2023/10/05 04:22:18;;;;;;;4.73;3.30;;;;;;;10.42;94.94;99068.63;4123520;28;20662;-85
2023/10/05 04:24:41;;;;;;;3.77;3.00;;;;;;;10.41;94.66;99071.31;4110533;28;20717;-84
2023/10/05 04:27:04;;;;;;;6.57;3.97;;;;;;;10.34;94.79;99069.94;4125000;28;20607;-85
2023/10/05 04:29:29;;;;;;;5.83;3.47;;;;;;;10.33;95.43;99069.09;4125041;28;20706;-85
2023/10/05 04:31:53;;;;;;;4.73;3.33;;;;;;;10.36;95.37;99070.72;4125207;28;20730;-85
2023/10/05 04:34:18;;;;;;;3.67;3.20;;;;;;;10.38;94.89;99068.88;4123893;28;21549;-84
2023/10/05 04:36:42;;;;;;;4.60;3.20;;;;;;;10.37;94.66;99069.78;4120531;28;21062;-84
2023/10/05 04:39:06;;;;;;;4.00;3.30;;;;;;;10.36;94.84;99061.13;4124779;28;20627;-84
2023/10/05 04:41:33;;;;;;;4.57;3.53;;;;;;;10.35;94.61;99063.81;4121154;28;20643;-85
2023/10/05 04:43:57;;;;;;;5.13;3.03;;;;;;;10.32;95.34;99058.75;4120024;28;20624;-85
2023/10/05 04:46:21;;;;;;;4.93;3.50;;;;;;;10.32;96.08;99069.19;4110065;28;20620;-84
2023/10/05 04:48:55;;;;;;;5.90;3.23;;;;;;;10.35;95.50;99067.25;4117412;28;20642;-84
2023/10/05 04:51:20;;;;;;;5.17;3.57;;;;;;;10.42;95.06;99075.63;4118104;28;20632;-84
2023/10/05 04:53:43;;;;;;;4.80;3.30;;;;;;;10.46;95.44;99069.31;4108546;28;21494;-84
2023/10/05 04:56:22;;;;;;;3.93;3.03;;;;;;;10.47;95.63;99068.41;4139594;28;20731;-84
2023/10/05 05:01:56;;;;;;;8.53;3.53;;;;;;;10.40;95.77;99053.97;4133440;28;21409;-85
2023/10/05 05:04:27;;;;;;;4.07;3.30;;;;;;;10.38;95.92;99058.44;4122794;28;20665;-84
2023/10/05 05:06:53;;;;;;;7.30;4.43;;;;;;;10.41;95.86;99064.34;4127195;28;20622;-84
2023/10/05 05:09:17;;;;;;;4.70;3.40;;;;;;;10.43;96.11;99072.94;4125951;28;20718;-84
2023/10/05 05:11:39;;;;;;;6.30;3.50;;;;;;;10.50;96.14;99076.06;4126836;28;20700;-84
2023/10/05 05:14:12;;;;;;;4.10;3.30;;;;;;;10.50;95.59;99068.22;4115291;28;20682;-84
2023/10/05 05:16:35;;;;;;;6.00;4.17;;;;;;;10.50;96.07;99073.44;4122868;28;20618;-85
2023/10/05 05:19:00;;;;;;;4.53;3.80;;;;;;;10.51;96.11;99067.31;4126539;28;20661;-84
2023/10/05 05:21:22;;;;;;;5.23;3.50;;;;;;;10.50;95.83;99069.06;4121936;28;20623;-85
2023/10/05 05:23:47;;;;;;;4.90;3.70;;;;;;;10.47;96.33;99061.41;4126918;28;20670;-84
2023/10/05 05:26:11;;;;;;;4.57;3.80;;;;;;;10.48;95.99;99064.88;4121904;28;21183;-85
2023/10/05 05:28:34;;;;;;;5.53;3.87;;;;;;;10.50;96.00;99069.06;4123843;28;20633;-84
2023/10/05 05:31:04;;;;;;;5.97;3.57;;;;;;;10.50;95.95;99073.44;4110272;28;21393;-84
2023/10/05 05:33:28;;;;;;;4.80;3.40;;;;;;;10.53;95.80;99068.91;4125933;28;21187;-84
2023/10/05 05:35:54;;;;;;;5.77;4.13;;;;;;;10.54;95.78;99064.53;4126401;28;20725;-84
2023/10/05 05:38:16;;;;;;;4.50;3.60;;;;;;;10.52;95.58;99072.44;4123729;28;20693;-84
2023/10/05 05:40:42;;;;;;;5.10;4.10;;;;;;;10.54;96.06;99074.97;4120733;28;20629;-84
2023/10/05 05:43:08;;;;;;;5.83;4.20;;;;;;;10.56;95.43;99073.97;4127524;28;20618;-85
2023/10/05 05:45:31;;;;;;;6.67;4.57;;;;;;;10.56;96.11;99079.19;4125420;28;20729;-84
2023/10/05 05:47:54;;;;;;;7.83;5.40;;;;;;;10.60;96.05;99082.47;4122887;28;21265;-84
2023/10/05 05:50:18;;;;;;;10.73;6.00;;;;;;;10.63;96.06;99091.00;4126589;28;20624;-85
2023/10/05 05:52:42;;;;;;;6.60;4.20;;;;;;;10.66;96.26;99089.97;4122562;28;20705;-85
2023/10/05 05:55:10;;;;;;;7.73;5.23;;;;;;;10.66;95.51;99087.34;4125574;28;22156;-84
2023/10/05 05:57:33;;;;;;;6.07;4.87;;;;;;;10.68;95.54;99090.75;4125055;28;20615;-84
2023/10/05 05:59:56;;;;;;;5.87;4.73;;;;;;;10.72;96.18;99087.03;4113469;28;20591;-84
2023/10/05 06:02:17;;;;;;;6.50;4.50;;;;;;;10.71;96.67;99067.09;4122318;28;20650;-85
2023/10/05 06:04:40;;;;;;;6.57;4.67;;;;;;;10.72;96.64;99080.06;4125819;28;20618;-85
2023/10/05 06:07:11;;;;;;;6.50;4.43;;;;;;;10.74;96.70;99067.78;4127197;28;20616;-84
2023/10/05 06:09:37;;;;;;;7.60;4.53;;;;;;;10.77;95.86;99070.22;4111082;28;20623;-85
2023/10/05 06:11:59;;;;;;;5.20;4.30;;;;;;;10.80;96.37;99074.44;4118211;28;20989;-85
2023/10/05 06:14:21;;;;;;;7.37;5.00;;;;;;;10.87;96.87;99084.47;4120626;28;20599;-86
2023/10/05 06:16:43;;;;;;;6.57;5.67;;;;;;;10.92;96.87;99078.06;4127703;28;20709;-85
2023/10/05 06:19:05;;;;;;;7.20;4.93;;;;;;;10.94;97.46;99070.16;4133239;28;20598;-86
2023/10/05 06:21:28;;;;;;;7.17;4.60;;;;;;;10.95;96.56;99072.69;4112007;28;21350;-87
2023/10/05 06:23:50;;;;;;;6.00;4.87;;;;;;;10.99;96.04;99084.66;4129130;28;21185;-85
2023/10/05 06:26:13;;;;;;;8.30;5.80;;;;;;;11.00;95.58;99091.53;4123201;28;20735;-85
2023/10/05 06:28:35;;;;;;;7.27;4.97;;;;;;;11.03;96.48;99093.16;4128353;28;21467;-85
2023/10/05 06:30:57;;;;;;;7.43;5.20;;;;;;;11.06;96.68;99083.38;4128541;28;20726;-86
2023/10/05 06:33:21;;;;;;;5.87;4.93;;;;;;;11.09;95.00;99091.03;4131957;28;20635;-85
2023/10/05 06:35:43;;;;;;;7.77;4.60;;;;;;;11.10;96.51;99090.13;4123185;28;20653;-85
2023/10/05 06:38:05;;;;;;;8.33;4.53;;;;;;;11.13;97.39;99097.78;4128682;28;20595;-86
2023/10/05 06:40:29;;;;;;;5.33;3.93;;;;;;;11.16;97.47;99105.47;4136902;28;20605;-86
2023/10/05 06:42:52;;;;;;;7.53;5.07;;;;;;;11.21;96.93;99110.44;4127387;28;20630;-85
2023/10/05 06:45:15;;;;;;;9.70;4.80;;;;;;;11.26;96.99;99122.31;4123701;28;20623;-85
2023/10/05 06:47:37;;;;;;;5.90;4.30;;;;;;;11.28;95.66;99120.47;4126114;28;20650;-86
2023/10/05 06:50:00;;;;;;;7.20;4.87;;;;;;;11.32;97.23;99124.56;4126993;28;21033;-86
2023/10/05 06:52:22;;;;;;;7.93;4.43;;;;;;;11.37;96.58;99139.06;4127813;28;20996;-85
2023/10/05 06:54:44;;;;;;;7.50;5.00;;;;;;;11.45;97.60;99138.66;4125139;28;20607;-85
2023/10/05 06:57:06;;;;;;;6.40;4.50;;;;;;;11.46;95.77;99135.13;4127749;28;20662;-86
2023/10/05 06:59:31;;;;;;;8.20;4.87;;;;;;;11.52;96.25;99140.88;4123648;28;20714;-86
2023/10/05 07:01:53;;;;;;;7.90;5.83;;;;;;;11.66;96.64;99145.34;4126586;28;20595;-85
2023/10/05 07:04:17;;;;;;;8.30;5.07;;;;;;;11.80;97.81;99139.25;4124455;28;20690;-85
2023/10/05 07:06:39;;;;;;;7.33;5.00;;;;;;;11.91;95.84;99144.72;4123105;28;20731;-85
2023/10/05 07:09:02;;;;;;;7.67;4.70;;;;;;;12.04;94.91;99148.31;4124369;28;20678;-85
2023/10/05 07:11:24;;;;;;;6.27;4.57;;;;;;;12.23;96.23;99163.78;4122679;28;21348;-85
2023/10/05 07:13:47;;;;;;;5.83;4.40;;;;;;;12.33;95.64;99171.03;4125682;28;20599;-85
2023/10/05 07:16:10;;;;;;;5.43;4.33;;;;;;;12.53;95.40;99168.06;4125288;28;20688;-85
2023/10/05 07:18:32;;;;;;;5.80;4.23;;;;;;;12.58;94.31;99151.16;4126855;28;20617;-85
2023/10/05 07:20:54;;;;;;;5.97;4.43;;;;;;;12.58;95.64;99158.16;4113071;28;21279;-85
2023/10/05 07:23:17;;;;;;;5.33;4.57;;;;;;;12.56;94.66;99158.25;4125553;28;20611;-85
2023/10/05 07:25:41;;;;;;;8.93;5.10;;;;;;;12.58;94.98;99153.78;4124295;28;20624;-85
2023/10/05 07:28:03;;;;;;;7.40;4.67;;;;;;;12.61;95.88;99164.06;4123576;28;20671;-85
2023/10/05 07:30:25;;;;;;;9.00;4.73;;;;;;;12.68;95.38;99161.94;4122797;28;20698;-85
2023/10/05 07:32:48;;;;;;;7.70;4.40;;;;;;;12.76;95.52;99165.75;4110150;28;20627;-85
2023/10/05 07:35:30;;;;;;;6.33;5.10;;;;;;;12.89;95.22;99174.63;4119789;28;21158;-85
2023/10/05 07:37:55;;;;;;;4.97;4.40;;;;;;;12.96;95.37;99168.06;4124562;28;20714;-86
2023/10/05 07:40:16;;;;;;;7.00;4.77;;;;;;;13.07;96.39;99168.25;4124169;28;20969;-86
2023/10/05 07:42:39;;;;;;;5.37;4.47;;;;;;;13.19;96.24;99174.41;4123994;28;20662;-85
2023/10/05 07:45:01;;;;;;;5.43;4.20;;;;;;;13.38;97.24;99167.13;4125062;28;20692;-85
2023/10/05 07:47:24;;;;;;;6.20;5.30;;;;;;;13.53;96.80;99176.66;4124216;28;20604;-85
2023/10/05 07:49:47;;;;;;;9.73;4.80;;;;;;;13.71;96.43;99176.31;4125621;28;20619;-85
2023/10/05 07:52:11;;;;;;;6.67;4.10;;;;;;;14.04;96.04;99179.38;4126327;28;21545;-85
2023/10/05 07:54:34;;;;;;;5.53;4.40;;;;;;;14.23;95.90;99179.91;4127452;28;20612;-85
2023/10/05 07:56:56;;;;;;;5.40;4.37;;;;;;;14.33;94.57;99178.38;4125643;28;20748;-86
2023/10/05 07:59:17;;;;;;;8.20;4.00;;;;;;;14.48;94.39;99191.34;4112858;28;20621;-86
2023/10/05 08:01:39;;;;;;;6.50;4.00;;;;;;;14.75;91.93;99195.56;4121032;28;20607;-85
2023/10/05 08:04:01;;;;;;;13.23;4.60;;;;;;;15.00;91.99;99189.50;4123006;28;20621;-85
2023/10/05 08:06:25;;;;;;;7.43;4.40;;;;;;;15.05;90.24;99197.88;4111199;28;20627;-85
2023/10/05 08:08:47;;;;;;;7.10;3.80;;;;;;;15.03;92.08;99195.38;4121811;28;20621;-84
2023/10/05 08:11:12;;;;;;;5.90;4.03;;;;;;;15.18;91.23;99210.97;4123620;28;20620;-86
2023/10/05 08:13:34;;;;;;;5.43;3.50;;;;;;;15.29;89.28;99204.97;4124027;28;20740;-87
2023/10/05 08:15:56;;;;;;;5.80;4.10;;;;;;;15.34;89.75;99201.06;4124745;28;20617;-86
2023/10/05 08:18:21;;;;;;;5.27;3.70;;;;;;;15.52;90.57;99206.84;4125516;28;21032;-87
2023/10/05 08:20:43;;;;;;;5.27;4.23;;;;;;;15.59;87.87;99201.88;4124943;28;21072;-87
2023/10/05 08:23:07;;;;;;;6.17;3.80;;;;;;;15.85;89.10;99205.28;4126244;28;20664;-86
2023/10/05 08:25:29;;;;;;;6.73;4.90;;;;;;;16.18;89.21;99201.91;4124473;28;20599;-86
2023/10/05 08:27:51;;;;;;;6.97;4.80;;;;;;;16.45;87.32;99214.84;4114338;28;20595;-86
2023/10/05 08:30:14;;;;;;;5.63;3.50;;;;;;;16.34;83.26;99213.03;4121184;28;20643;-87
2023/10/05 08:32:37;;;;;;;6.57;4.00;;;;;;;16.18;85.92;99204.53;4127989;28;20661;-86
2023/10/05 08:35:06;;;;;;;6.23;3.63;;;;;;;16.20;85.79;99204.41;4128131;28;20617;-86
2023/10/05 08:37:34;;;;;;;5.97;3.90;;;;;;;16.40;88.15;99217.00;4128550;28;20629;-86
2023/10/05 08:39:57;;;;;;;5.50;3.93;;;;;;;16.74;87.94;99223.09;4130088;28;20654;-86
2023/10/05 08:42:19;;;;;;;5.33;3.90;;;;;;;16.87;85.17;99208.06;4128325;28;20613;-86
2023/10/05 08:44:43;;;;;;;6.63;3.77;;;;;;;16.99;85.19;99212.41;4115557;28;20609;-86
2023/10/05 08:47:06;;;;;;;8.13;5.83;;;;;;;17.11;86.17;99212.31;4126536;28;20617;-86
2023/10/05 08:49:28;;;;;;;10.73;7.50;;;;;;;17.23;84.64;99208.75;4126977;28;20613;-87
2023/10/05 08:51:51;;;;;;;5.20;3.53;;;;;;;17.25;82.53;99214.75;4114135;28;21249;-86
2023/10/05 08:54:28;;;;;;;6.80;3.63;;;;;;;17.19;81.94;99215.19;4135256;28;20632;-87
2023/10/05 08:56:52;;;;;;;5.57;3.37;;;;;;;17.12;81.58;99207.88;4131422;28;20782;-87
2023/10/05 08:59:14;;;;;;;7.40;3.60;;;;;;;17.09;83.04;99208.09;4132187;28;20598;-86
2023/10/05 09:01:36;;;;;;;5.20;3.50;;;;;;;17.13;81.05;99202.47;4126399;28;20624;-87
2023/10/05 09:04:11;;;;;;;6.17;3.60;;;;;;;17.23;82.35;99211.41;4127161;28;20711;-87
2023/10/05 09:06:45;;;;;;;5.97;3.90;;;;;;;17.36;82.11;99201.56;4123626;28;20610;-86
2023/10/05 09:09:14;;;;;;;6.80;4.30;;;;;;;17.57;80.06;99211.28;4128531;28;20614;-87
2023/10/05 09:11:36;;;;;;;4.57;3.27;;;;;;;17.80;79.80;99209.47;4126359;28;20596;-86
2023/10/05 09:14:08;;;;;;;11.47;4.47;;;;;;;17.88;78.29;99207.06;4125902;28;20587;-87
2023/10/05 09:16:41;;;;;;;7.83;4.10;;;;;;;18.07;80.28;99211.59;4118630;28;20678;-86
2023/10/05 09:19:03;;;;;;;7.17;4.20;;;;;;;18.16;79.97;99210.88;4133165;28;20615;-87
2023/10/05 09:21:44;;;;;;;7.27;5.03;;;;;;;18.14;79.29;99201.41;4127356;28;20631;-87
2023/10/05 09:24:19;;;;;;;8.00;3.83;;;;;;;18.08;78.03;99204.50;4122661;28;20606;-87
2023/10/05 09:26:45;;;;;;;6.63;3.90;;;;;;;17.95;78.71;99201.16;4124641;28;20703;-87
2023/10/05 09:29:24;;;;;;;8.47;4.23;;;;;;;17.98;78.86;99193.00;4106752;28;20678;-87
2023/10/05 09:31:50;;;;;;;6.37;3.63;;;;;;;17.95;79.20;99195.88;4122854;28;20631;-87
2023/10/05 09:34:14;;;;;;;7.13;4.23;;;;;;;17.87;79.19;99193.00;4124479;28;20622;-86
2023/10/05 09:36:39;;;;;;;7.63;4.03;;;;;;;17.93;78.99;99201.28;4135072;28;21283;-86
2023/10/05 09:39:04;;;;;;;9.83;4.57;;;;;;;18.06;80.10;99215.19;4121594;28;20662;-86
2023/10/05 09:41:26;;;;;;;7.33;3.90;;;;;;;18.15;78.20;99208.38;4123988;28;20641;-87
2023/10/05 09:43:58;;;;;;;6.77;4.30;;;;;;;18.25;78.95;99219.84;4126148;28;21206;-86
2023/10/05 09:46:22;;;;;;;6.03;3.70;;;;;;;18.30;79.14;99201.84;4120040;28;20630;-86
2023/10/05 09:48:44;;;;;;;12.30;6.50;;;;;;;18.32;78.09;99194.63;4127686;28;20737;-86
2023/10/05 09:51:10;;;;;;;8.70;4.47;;;;;;;18.39;77.87;99190.50;4128242;28;20369;-86
2023/10/05 09:53:33;;;;;;;8.70;4.13;;;;;;;18.54;79.11;99198.84;4123704;28;20718;-86
2023/10/05 09:55:59;;;;;;;8.40;4.00;;;;;;;18.67;76.96;99196.03;4126823;28;20625;-87
2023/10/05 09:58:22;;;;;;;6.20;4.13;;;;;;;18.76;77.25;99182.88;4113655;28;20653;-87
2023/10/05 10:00:49;;;;;;;7.33;4.30;;;;;;;18.75;76.31;99193.56;4129414;28;20623;-86
2023/10/05 10:03:14;;;;;;;6.80;3.97;;;;;;;18.65;76.73;99187.41;4122831;28;20711;-86
2023/10/05 10:05:42;;;;;;;7.23;3.77;;;;;;;18.56;78.01;99199.56;4110907;28;20715;-86
2023/10/05 10:08:09;;;;;;;8.90;4.37;;;;;;;18.56;77.35;99196.09;4110857;28;20620;-87
2023/10/05 10:10:38;;;;;;;11.00;4.13;;;;;;;18.59;78.78;99201.94;4124286;28;20637;-86
2023/10/05 10:13:00;;;;;;;14.80;6.00;;;;;;;18.53;78.29;99197.16;4123755;28;20695;-86
2023/10/05 10:15:33;;;;;;;10.63;4.33;;;;;;;18.57;78.66;99193.31;4106745;28;20623;-86
2023/10/05 10:18:13;;;;;;;8.27;3.87;;;;;;;18.77;79.09;99200.41;4126451;28;20693;-86
2023/10/05 10:20:37;;;;;;;11.27;4.30;;;;;;;18.95;77.99;99197.06;4120602;28;20632;-86
2023/10/05 10:23:00;;;;;;;7.30;3.87;;;;;;;18.94;77.48;99197.19;4119912;28;21307;-87
2023/10/05 10:25:30;;;;;;;11.87;4.10;;;;;;;18.96;77.41;99192.63;4124297;28;20728;-87
2023/10/05 10:28:12;;;;;;;10.93;4.10;;;;;;;19.03;76.38;99201.75;4126662;28;21127;-87
2023/10/05 10:30:36;;;;;;;11.07;4.30;;;;;;;19.20;78.39;99196.72;4122780;28;20652;-87
2023/10/05 10:33:22;;;;;;;10.27;3.63;;;;;;;19.23;75.04;99200.88;4124981;28;20608;-86
2023/10/05 10:35:48;;;;;;;10.33;3.57;;;;;;;19.10;72.93;99198.44;4125681;28;20617;-86
2023/10/05 10:38:17;;;;;;;11.20;4.10;;;;;;;19.05;73.31;99197.19;4126732;28;20641;-85
2023/10/05 10:40:48;;;;;;;8.83;4.07;;;;;;;19.17;73.92;99201.41;4125426;28;20634;-86
2023/10/05 10:43:13;;;;;;;7.80;4.40;;;;;;;19.25;75.94;99191.03;4127440;28;20612;-86
2023/10/05 10:45:41;;;;;;;8.70;3.73;;;;;;;19.25;74.63;99198.97;4126963;28;20617;-86
2023/10/05 10:48:08;;;;;;;8.80;3.80;;;;;;;19.28;74.55;99199.53;4125121;28;20598;-86
2023/10/05 10:50:31;;;;;;;10.10;4.73;;;;;;;19.50;74.66;99200.22;4127822;28;20657;-86
2023/10/05 10:52:56;;;;;;;9.23;3.73;;;;;;;19.68;73.95;99193.31;4125780;28;21100;-89
2023/10/05 10:55:20;;;;;;;7.80;3.50;;;;;;;19.78;74.16;99202.09;4128623;28;20606;-87
2023/10/05 10:57:44;;;;;;;6.60;3.17;;;;;;;19.89;74.72;99194.09;4124663;28;20652;-86
2023/10/05 11:02:44;;;;;;;9.60;3.70;;;;;;;19.91;70.78;99194.81;4109143;28;20697;-86
2023/10/05 11:05:05;;;;;;;9.03;4.10;;;;;;;19.71;73.27;99182.47;4119500;28;20618;-86
2023/10/05 11:07:28;;;;;;;9.10;3.37;;;;;;;19.63;72.38;99179.63;4123886;28;21049;-86
2023/10/05 11:09:52;;;;;;;10.37;3.37;;;;;;;19.56;71.48;99167.06;4108425;28;20700;-85
2023/10/05 11:12:17;;;;;;;6.50;3.50;;;;;;;19.27;71.03;99157.31;4123812;28;20614;-86
2023/10/05 11:14:32;;;;;;;8.73;3.30;;;;;;;19.36;71.12;99164.47;4124474;28;20636;-86
2023/10/05 11:16:43;;;;;;;10.30;3.87;;;;;;;19.50;73.02;99157.84;4120633;28;20646;-86
2023/10/05 11:18:57;;;;;;;7.07;2.83;;;;;;;19.62;70.33;99151.50;4123980;28;21296;-86
2023/10/05 11:21:18;;;;;;;9.63;3.90;;;;;;;19.70;72.91;99164.06;4104909;28;20639;-86
2023/10/05 11:23:25;;;;;;;9.30;3.77;;;;;;;19.70;72.59;99164.88;4138316;28;21075;-86
2023/10/05 11:25:32;;;;;;;6.67;2.77;;;;;;;19.72;71.56;99167.41;4125155;28;20646;-86